Terminal Aerodrome Forecast
Issued by NWS

Home | Current Version | Previous Version | Text Only | Print | Product List | Glossary On
Versions: 1 2 3 4 5 6 7 8 9 10 11 12 13 14 15 16 17 18 19 20 21 22 23 24 25 26 27 28 29 30 31 32 33 34
000
FTUS41 KBUF 282300 RRA
TAFIAG
TAF
KIAG 282347Z 2900/2924 25005KT P6SM VCSH BKN040
      TEMPO 2901/2905 4SM -SHSN BKN025
     FM290500 18008KT P6SM BKN040 OVC060
     FM291500 17009KT 4SM -SHSN BKN040 OVC050=

USA.gov is the U.S. government's official web portal to all federal, state and local government web resources and services.